Time;durP1;ratioP1;P1;durP2;ratioP2;P2;SDS_P1;SDS_P2;PMS_P1;PMS_P2;Temp;Humidity;BMP_temperature;BMP_pressure;BME280_temperature;BME280_humidity;BME280_pressure;Samples;Min_cycle;Max_cycle;Signal;HPM_P1;HPM_P2
2023/09/22 00:01:07;;;;;;;2.58;1.45;;;16.20;99.90;;;;;;5007159;28;20212;-76
2023/09/22 00:03:34;;;;;;;1.58;1.25;;;16.20;99.90;;;;;;5000098;28;20200;-76
2023/09/22 00:06:02;;;;;;;1.90;1.20;;;16.20;99.90;;;;;;5008208;28;20228;-77
2023/09/22 00:08:29;;;;;;;1.80;1.23;;;16.10;99.90;;;;;;5010025;28;20192;-76
2023/09/22 00:10:58;;;;;;;1.58;1.10;;;16.20;99.90;;;;;;5014316;28;20649;-76
2023/09/22 00:13:26;;;;;;;2.63;1.73;;;16.10;99.90;;;;;;5005559;28;20199;-77
2023/09/22 00:15:53;;;;;;;2.78;2.00;;;16.10;99.90;;;;;;5007702;28;20226;-76
2023/09/22 00:18:20;;;;;;;6.18;2.53;;;16.10;99.90;;;;;;4997934;28;20569;-77
2023/09/22 00:20:48;;;;;;;3.25;1.73;;;16.10;99.90;;;;;;5005667;28;20223;-76
2023/09/22 00:23:16;;;;;;;2.38;1.50;;;15.90;99.90;;;;;;5022621;28;20204;-76
2023/09/22 00:25:43;;;;;;;1.73;1.30;;;15.90;99.90;;;;;;5002740;28;20223;-76
2023/09/22 00:28:12;;;;;;;2.78;1.80;;;16.00;99.90;;;;;;4998519;28;20284;-76
2023/09/22 00:30:39;;;;;;;1.80;1.50;;;16.00;99.90;;;;;;5005611;28;20211;-77
2023/09/22 00:33:06;;;;;;;4.38;1.92;;;15.90;99.90;;;;;;5001194;28;20697;-77
2023/09/22 00:35:34;;;;;;;3.85;2.05;;;15.90;99.90;;;;;;4997658;28;20224;-76
2023/09/22 00:38:01;;;;;;;2.47;2.10;;;16.00;99.90;;;;;;5007599;28;20204;-76
2023/09/22 00:40:28;;;;;;;2.15;1.88;;;15.90;99.90;;;;;;5008223;28;20201;-77
2023/09/22 00:43:10;;;;;;;3.05;2.00;;;15.90;99.90;;;;;;4995755;28;20207;-76
2023/09/22 00:45:43;;;;;;;2.33;1.98;;;15.90;99.90;;;;;;5002424;28;20220;-76
2023/09/22 00:48:32;;;;;;;4.22;2.25;;;15.80;99.90;;;;;;5010629;28;20214;-77
2023/09/22 00:51:01;;;;;;;3.58;2.10;;;15.80;99.90;;;;;;4992450;28;20216;-76
2023/09/22 00:53:30;;;;;;;2.97;2.13;;;15.80;99.90;;;;;;5016018;28;20211;-76
2023/09/22 00:55:58;;;;;;;2.78;2.05;;;15.80;99.90;;;;;;5005242;28;20230;-76
2023/09/22 00:58:25;;;;;;;3.35;2.35;;;15.80;99.90;;;;;;5005888;28;20196;-76
2023/09/22 01:00:54;;;;;;;2.95;2.45;;;15.80;99.90;;;;;;5000367;28;20224;-76
2023/09/22 01:03:22;;;;;;;2.33;1.92;;;15.80;99.90;;;;;;4996878;28;20661;-76
2023/09/22 01:05:50;;;;;;;3.22;2.42;;;15.80;99.90;;;;;;5003358;28;20220;-76
2023/09/22 01:08:18;;;;;;;2.92;2.40;;;15.80;99.90;;;;;;5006051;28;20195;-76
2023/09/22 01:10:46;;;;;;;2.45;2.25;;;15.70;99.90;;;;;;5002269;28;20199;-76
2023/09/22 01:13:14;;;;;;;2.63;2.42;;;15.70;99.90;;;;;;5002486;28;20203;-76
2023/09/22 01:15:42;;;;;;;2.30;2.10;;;15.70;99.90;;;;;;5003253;28;20685;-76
2023/09/22 01:18:13;;;;;;;2.85;2.38;;;15.60;99.90;;;;;;5004660;28;20206;-76
2023/09/22 01:20:41;;;;;;;4.30;2.30;;;15.60;99.90;;;;;;5005210;28;20212;-77
2023/09/22 01:23:11;;;;;;;2.45;2.22;;;15.50;99.90;;;;;;4999900;28;20207;-76
2023/09/22 01:25:43;;;;;;;2.35;2.10;;;15.60;99.90;;;;;;5008382;28;20219;-77
2023/09/22 01:28:11;;;;;;;3.60;2.22;;;15.70;99.90;;;;;;4999213;28;20196;-76
2023/09/22 01:30:39;;;;;;;2.30;1.95;;;15.70;99.90;;;;;;5001180;28;20199;-77
2023/09/22 01:33:07;;;;;;;2.80;2.08;;;15.50;99.90;;;;;;5002716;28;20218;-76
2023/09/22 01:35:35;;;;;;;2.22;1.95;;;15.50;99.90;;;;;;5001292;28;20234;-77
2023/09/22 01:38:15;;;;;;;2.83;2.40;;;15.50;99.90;;;;;;5002584;28;20210;-77
2023/09/22 01:40:43;;;;;;;3.95;1.85;;;15.60;99.90;;;;;;5000974;28;20230;-76
2023/09/22 01:43:11;;;;;;;3.90;2.25;;;15.50;99.90;;;;;;5002608;28;20207;-76
2023/09/22 01:45:39;;;;;;;2.28;1.83;;;15.50;99.90;;;;;;5021013;28;20219;-77
2023/09/22 01:48:08;;;;;;;2.13;1.80;;;15.50;99.90;;;;;;5003562;28;20679;-76
2023/09/22 01:50:37;;;;;;;3.13;1.90;;;15.60;99.90;;;;;;5007269;28;20661;-77
2023/09/22 01:53:05;;;;;;;3.10;2.03;;;15.60;99.90;;;;;;4996130;28;20337;-77
2023/09/22 01:55:37;;;;;;;3.28;2.35;;;15.50;99.90;;;;;;5000480;28;20231;-77
2023/09/22 01:58:05;;;;;;;4.65;2.28;;;15.50;99.90;;;;;;5021324;28;20417;-76
2023/09/22 02:00:33;;;;;;;4.10;2.17;;;15.50;99.90;;;;;;4998607;28;20226;-76
2023/09/22 02:03:00;;;;;;;3.92;2.38;;;15.40;99.90;;;;;;4999750;28;20200;-77
2023/09/22 02:05:29;;;;;;;4.13;2.00;;;15.50;99.90;;;;;;5013284;28;20216;-76
2023/09/22 02:07:57;;;;;;;4.18;2.70;;;15.40;99.90;;;;;;4997153;28;20200;-76
2023/09/22 02:10:24;;;;;;;3.22;2.15;;;15.40;99.90;;;;;;4997480;28;20203;-76
2023/09/22 02:12:54;;;;;;;3.28;2.35;;;15.50;99.90;;;;;;5000327;28;20200;-76
2023/09/22 02:15:21;;;;;;;2.30;2.10;;;15.30;99.90;;;;;;5000484;28;20216;-76
2023/09/22 02:17:49;;;;;;;3.97;2.25;;;15.40;99.90;;;;;;5006275;28;20554;-76
2023/09/22 02:20:22;;;;;;;3.78;2.75;;;15.30;99.90;;;;;;4999812;28;20222;-76
2023/09/22 02:22:50;;;;;;;2.42;2.10;;;15.40;99.90;;;;;;5002953;28;20204;-74
2023/09/22 02:25:18;;;;;;;4.47;2.17;;;15.30;99.90;;;;;;5007336;28;20215;-76
2023/09/22 02:27:47;;;;;;;2.40;2.20;;;15.30;99.90;;;;;;5007022;28;20192;-76
2023/09/22 02:30:16;;;;;;;2.88;2.03;;;15.40;99.90;;;;;;5024175;28;20598;-76
2023/09/22 02:32:46;;;;;;;4.30;2.22;;;15.40;99.90;;;;;;5012252;28;20200;-77
2023/09/22 02:35:13;;;;;;;2.55;2.17;;;15.50;99.90;;;;;;5000606;28;20204;-76
2023/09/22 02:37:41;;;;;;;3.83;2.00;;;15.40;99.90;;;;;;5004606;28;20202;-77
2023/09/22 02:40:11;;;;;;;5.20;2.35;;;15.40;99.90;;;;;;5006497;28;20199;-77
2023/09/22 02:42:40;;;;;;;2.50;1.88;;;15.40;99.90;;;;;;4999297;28;20227;-77
2023/09/22 02:45:09;;;;;;;2.05;1.77;;;15.40;99.90;;;;;;5009193;28;20210;-77
2023/09/22 02:47:38;;;;;;;3.00;1.92;;;15.40;99.90;;;;;;5006687;28;20250;-77
2023/09/22 02:50:08;;;;;;;4.45;2.30;;;15.40;99.90;;;;;;4998519;28;20216;-77
2023/09/22 02:52:36;;;;;;;2.60;1.83;;;15.30;99.90;;;;;;5005108;28;20237;-76
2023/09/22 02:55:04;;;;;;;4.43;2.10;;;15.20;99.90;;;;;;5011618;28;20199;-77
2023/09/22 02:57:31;;;;;;;5.45;1.88;;;15.30;99.90;;;;;;4994824;28;20192;-76
2023/09/22 02:59:59;;;;;;;4.65;1.95;;;15.20;99.90;;;;;;4998902;28;20689;-76
2023/09/22 03:02:27;;;;;;;3.38;2.00;;;15.20;99.90;;;;;;5003539;28;20222;-77
2023/09/22 03:04:56;;;;;;;3.92;2.30;;;15.40;99.90;;;;;;5005949;28;20206;-77
2023/09/22 03:07:23;;;;;;;5.00;2.28;;;15.30;99.90;;;;;;5000536;28;20223;-76
2023/09/22 03:09:52;;;;;;;3.28;2.33;;;15.20;99.90;;;;;;5003407;28;20200;-76
2023/09/22 03:12:19;;;;;;;1.92;1.77;;;15.10;99.90;;;;;;5011893;28;20188;-76
2023/09/22 03:14:49;;;;;;;4.53;2.20;;;15.30;99.90;;;;;;5002139;28;20210;-77
2023/09/22 03:17:16;;;;;;;2.88;1.98;;;15.30;99.90;;;;;;5003363;28;20220;-76
2023/09/22 03:19:44;;;;;;;5.35;2.33;;;15.20;99.90;;;;;;5005721;28;20210;-76
2023/09/22 03:22:12;;;;;;;2.38;1.90;;;15.20;99.90;;;;;;4999059;28;20220;-77
2023/09/22 03:24:40;;;;;;;2.85;1.92;;;15.20;99.90;;;;;;4998932;28;20576;-77
2023/09/22 03:27:07;;;;;;;2.85;2.30;;;15.30;99.90;;;;;;5008855;28;20219;-76
2023/09/22 03:29:35;;;;;;;3.28;2.22;;;15.40;99.90;;;;;;5008654;28;20573;-76
2023/09/22 03:32:03;;;;;;;3.88;1.90;;;15.30;99.90;;;;;;5005882;28;20196;-76
2023/09/22 03:34:30;;;;;;;4.18;2.00;;;15.40;99.90;;;;;;5001772;28;20215;-75
2023/09/22 03:36:59;;;;;;;3.97;1.95;;;15.30;99.90;;;;;;5009116;28;20230;-77
2023/09/22 03:39:30;;;;;;;3.00;1.85;;;15.30;99.90;;;;;;4996975;28;20200;-76
2023/09/22 03:41:58;;;;;;;4.05;1.90;;;15.20;99.90;;;;;;5004263;28;20219;-76
2023/09/22 03:44:26;;;;;;;3.72;2.15;;;15.10;99.90;;;;;;4999254;28;20561;-77
2023/09/22 03:46:53;;;;;;;3.53;2.10;;;15.10;99.90;;;;;;5002755;28;20227;-77
2023/09/22 03:49:20;;;;;;;5.65;2.35;;;15.10;99.90;;;;;;5018145;28;20208;-75
2023/09/22 03:51:48;;;;;;;4.60;2.67;;;15.00;99.90;;;;;;5006135;28;20211;-76
2023/09/22 03:54:15;;;;;;;2.95;2.00;;;15.10;99.90;;;;;;4994740;28;20203;-77
2023/09/22 03:56:44;;;;;;;5.30;2.13;;;15.00;99.90;;;;;;5008091;28;20219;-76
2023/09/22 03:59:12;;;;;;;3.72;2.10;;;15.00;99.90;;;;;;5004872;28;20200;-76
2023/09/22 04:01:39;;;;;;;3.97;2.83;;;15.00;99.90;;;;;;5024982;28;20227;-77
2023/09/22 04:04:07;;;;;;;2.72;1.98;;;15.00;99.90;;;;;;5001159;28;20231;-77
2023/09/22 04:06:35;;;;;;;2.75;1.95;;;15.00;99.90;;;;;;5006851;28;20223;-77
2023/09/22 04:09:03;;;;;;;3.45;2.10;;;15.10;99.90;;;;;;5008009;28;20199;-76
2023/09/22 04:11:31;;;;;;;2.67;1.90;;;15.10;99.90;;;;;;5024370;28;20196;-76
2023/09/22 04:14:00;;;;;;;3.50;1.88;;;15.10;99.90;;;;;;4995118;28;20201;-77
2023/09/22 04:16:27;;;;;;;3.97;1.70;;;15.00;99.90;;;;;;5004088;28;20231;-77
2023/09/22 04:18:55;;;;;;;2.75;1.80;;;14.90;99.90;;;;;;4999185;28;20200;-77
2023/09/22 04:21:22;;;;;;;1.88;1.45;;;15.00;99.90;;;;;;5018461;28;20226;-76
2023/09/22 04:23:57;;;;;;;2.83;1.85;;;14.90;99.90;;;;;;5002432;28;20593;-76
2023/09/22 04:26:29;;;;;;;2.67;1.50;;;14.90;99.90;;;;;;5005622;28;20705;-75
2023/09/22 04:28:57;;;;;;;1.98;1.30;;;14.90;99.90;;;;;;5000814;28;21605;-75
2023/09/22 04:31:28;;;;;;;2.13;1.42;;;14.90;99.90;;;;;;5001033;28;20192;-76
2023/09/22 04:33:55;;;;;;;2.10;1.35;;;14.90;99.90;;;;;;5019127;28;20218;-76
2023/09/22 04:36:22;;;;;;;1.60;1.27;;;14.90;99.90;;;;;;5005299;28;20222;-76
2023/09/22 04:38:50;;;;;;;4.00;1.75;;;14.90;99.90;;;;;;5004530;28;20203;-76
2023/09/22 04:41:19;;;;;;;3.20;1.38;;;14.90;99.90;;;;;;5002116;28;20211;-76
2023/09/22 04:43:47;;;;;;;2.55;1.88;;;14.90;99.90;;;;;;5003713;28;20223;-77
2023/09/22 04:46:15;;;;;;;3.25;1.58;;;14.90;99.90;;;;;;5004256;28;20230;-76
2023/09/22 04:48:46;;;;;;;5.03;1.50;;;14.90;99.90;;;;;;4996336;28;20204;-76
2023/09/22 04:51:14;;;;;;;3.47;1.38;;;14.80;99.90;;;;;;4997087;28;20206;-76
2023/09/22 04:53:42;;;;;;;2.63;1.73;;;14.80;99.90;;;;;;4999803;28;20195;-76
2023/09/22 04:56:09;;;;;;;1.77;1.67;;;14.80;99.90;;;;;;5004987;28;20346;-76
2023/09/22 04:58:38;;;;;;;2.75;1.15;;;14.70;99.90;;;;;;5007849;28;20207;-76
2023/09/22 05:01:05;;;;;;;1.73;1.10;;;14.70;99.90;;;;;;5003163;28;20196;-76
2023/09/22 05:03:34;;;;;;;2.70;1.65;;;14.80;99.90;;;;;;5029010;23;20215;-78
2023/09/22 05:06:06;;;;;;;4.38;1.73;;;14.80;99.90;;;;;;4997951;28;20211;-78
2023/09/22 05:08:34;;;;;;;2.03;1.52;;;14.80;99.90;;;;;;4993605;28;20207;-78
2023/09/22 05:11:05;;;;;;;2.33;1.40;;;14.70;99.90;;;;;;5009720;28;20247;-79
2023/09/22 05:13:33;;;;;;;1.50;1.38;;;14.70;99.90;;;;;;5006437;28;20299;-78
2023/09/22 05:16:09;;;;;;;2.72;1.33;;;14.80;99.90;;;;;;5005703;28;20207;-78
2023/09/22 05:18:37;;;;;;;4.15;1.48;;;14.80;99.90;;;;;;5000161;28;20204;-78
2023/09/22 05:21:06;;;;;;;3.63;1.73;;;14.80;99.90;;;;;;4994961;28;20211;-79
2023/09/22 05:23:34;;;;;;;2.28;1.63;;;14.60;99.90;;;;;;5004542;28;20227;-78
2023/09/22 05:26:08;;;;;;;2.65;1.33;;;14.70;99.90;;;;;;5008425;28;20208;-78
2023/09/22 05:28:36;;;;;;;2.50;1.40;;;14.60;99.90;;;;;;5020680;28;20207;-79
2023/09/22 05:31:05;;;;;;;3.78;1.50;;;14.60;99.90;;;;;;5010874;28;20219;-80
2023/09/22 05:33:33;;;;;;;2.13;1.25;;;14.60;99.90;;;;;;5008856;28;20223;-78
2023/09/22 05:36:00;;;;;;;4.43;1.50;;;14.60;99.90;;;;;;5011288;28;20207;-78
2023/09/22 05:38:33;;;;;;;3.20;1.55;;;14.60;99.90;;;;;;5002372;28;20208;-78
2023/09/22 05:41:01;;;;;;;4.93;1.40;;;14.60;99.90;;;;;;5005063;28;20212;-77
2023/09/22 05:43:31;;;;;;;4.28;1.25;;;14.60;99.90;;;;;;5009289;28;20223;-77
2023/09/22 05:45:59;;;;;;;3.20;1.30;;;14.60;99.90;;;;;;5007349;28;20207;-77
2023/09/22 05:48:26;;;;;;;2.42;1.20;;;14.70;99.90;;;;;;5005049;28;20228;-77
2023/09/22 05:50:59;;;;;;;2.05;1.13;;;14.70;99.90;;;;;;5004422;28;20204;-77
2023/09/22 05:53:27;;;;;;;2.13;1.20;;;14.60;99.90;;;;;;5007272;28;20224;-77
2023/09/22 05:56:11;;;;;;;4.65;2.47;;;14.80;99.90;;;;;;5006198;28;20200;-78
2023/09/22 05:58:40;;;;;;;2.33;0.93;;;14.70;99.90;;;;;;5015858;28;20204;-78
2023/09/22 06:01:08;;;;;;;2.25;1.48;;;14.70;99.90;;;;;;5012382;28;20212;-78
2023/09/22 06:03:37;;;;;;;3.15;1.30;;;14.70;99.90;;;;;;5010274;28;20247;-79
2023/09/22 06:06:09;;;;;;;3.47;1.20;;;14.70;99.90;;;;;;5012228;28;20200;-77
2023/09/22 06:08:37;;;;;;;2.72;1.30;;;14.70;99.90;;;;;;5027959;28;20211;-78
2023/09/22 06:11:04;;;;;;;2.85;1.35;;;14.60;99.90;;;;;;5002544;28;20205;-78
2023/09/22 06:13:34;;;;;;;2.67;1.60;;;14.60;99.90;;;;;;5015467;28;20223;-78
2023/09/22 06:16:01;;;;;;;3.28;1.60;;;14.70;99.90;;;;;;5015651;28;20204;-78
2023/09/22 06:18:29;;;;;;;2.63;1.55;;;14.60;99.90;;;;;;5007536;28;20204;-78
2023/09/22 06:20:57;;;;;;;2.72;1.30;;;14.70;99.90;;;;;;5009164;28;20203;-78
2023/09/22 06:23:25;;;;;;;3.53;1.40;;;14.70;99.90;;;;;;5009929;28;20590;-78
2023/09/22 06:25:54;;;;;;;1.73;1.42;;;14.70;99.90;;;;;;5006794;28;20217;-78
2023/09/22 06:28:22;;;;;;;4.97;1.58;;;14.80;99.90;;;;;;5014640;28;20208;-79
2023/09/22 06:30:52;;;;;;;1.65;1.10;;;14.80;99.90;;;;;;5005543;28;20208;-78
2023/09/22 06:33:20;;;;;;;2.53;1.17;;;14.80;99.90;;;;;;5017239;28;20220;-78
2023/09/22 06:35:47;;;;;;;4.38;1.50;;;14.80;99.90;;;;;;5011558;28;20200;-78
2023/09/22 06:38:16;;;;;;;2.08;1.35;;;14.80;99.90;;;;;;5007936;28;20207;-77
2023/09/22 06:40:45;;;;;;;1.83;1.33;;;14.90;99.90;;;;;;5006577;28;20200;-78
2023/09/22 06:43:12;;;;;;;1.65;1.00;;;14.80;99.90;;;;;;5008496;28;20228;-77
2023/09/22 06:45:41;;;;;;;2.08;1.30;;;14.90;99.90;;;;;;5010383;28;20231;-78
2023/09/22 06:48:11;;;;;;;1.92;1.02;;;14.90;99.90;;;;;;5004799;28;20662;-77
2023/09/22 06:50:38;;;;;;;3.08;1.30;;;14.90;99.90;;;;;;5019620;28;20201;-77
2023/09/22 06:53:06;;;;;;;3.13;1.48;;;14.80;99.90;;;;;;5003260;28;20223;-78
2023/09/22 06:55:33;;;;;;;3.40;1.35;;;14.90;99.90;;;;;;5010982;28;20203;-77
2023/09/22 06:58:01;;;;;;;3.42;1.25;;;14.90;99.90;;;;;;5007387;28;20313;-77
2023/09/22 07:00:29;;;;;;;2.47;1.30;;;14.80;99.90;;;;;;4997484;28;20201;-77
2023/09/22 07:02:57;;;;;;;2.38;1.17;;;14.80;99.90;;;;;;5004360;28;20219;-77
2023/09/22 07:05:26;;;;;;;2.47;1.40;;;14.80;99.90;;;;;;5006677;28;20200;-78
2023/09/22 07:07:53;;;;;;;3.45;1.50;;;14.90;99.90;;;;;;5011066;28;20206;-77
2023/09/22 07:10:28;;;;;;;2.22;1.38;;;15.00;99.90;;;;;;5012248;28;20207;-77
2023/09/22 07:12:55;;;;;;;3.03;1.58;;;15.00;99.90;;;;;;5011177;28;20199;-77
2023/09/22 07:15:23;;;;;;;2.22;1.17;;;15.10;99.90;;;;;;4994424;28;20199;-77
2023/09/22 07:17:50;;;;;;;2.83;1.50;;;15.10;99.90;;;;;;4999016;28;20199;-78
2023/09/22 07:20:18;;;;;;;1.50;1.33;;;15.10;99.90;;;;;;5005398;28;20193;-77
2023/09/22 07:22:47;;;;;;;4.80;1.15;;;15.10;99.90;;;;;;5013417;28;20204;-77
2023/09/22 07:25:15;;;;;;;2.78;1.40;;;15.20;99.90;;;;;;5007215;28;20199;-78
2023/09/22 07:27:44;;;;;;;2.58;1.40;;;15.20;99.90;;;;;;5005289;28;20223;-77
2023/09/22 07:30:13;;;;;;;2.25;1.30;;;15.10;99.90;;;;;;5007661;28;20208;-77
2023/09/22 07:32:40;;;;;;;3.78;1.50;;;15.20;99.90;;;;;;5007851;28;20211;-77
2023/09/22 07:35:08;;;;;;;2.92;1.15;;;15.20;99.90;;;;;;5007572;28;20223;-77
2023/09/22 07:37:36;;;;;;;4.55;1.35;;;15.20;99.90;;;;;;5013912;28;20207;-77
2023/09/22 07:40:08;;;;;;;3.00;1.83;;;15.20;99.90;;;;;;5009078;28;20204;-78
2023/09/22 07:42:38;;;;;;;3.67;1.23;;;15.20;99.90;;;;;;5002587;28;20208;-77
2023/09/22 07:45:07;;;;;;;3.25;1.20;;;15.20;99.90;;;;;;5005121;28;20230;-77
2023/09/22 07:47:34;;;;;;;3.13;1.38;;;15.30;99.90;;;;;;5001109;28;20214;-76
2023/09/22 07:50:02;;;;;;;2.13;1.15;;;15.30;99.90;;;;;;5001547;28;20283;-78
2023/09/22 07:52:30;;;;;;;3.00;1.40;;;15.20;99.90;;;;;;4998400;28;20204;-76
2023/09/22 07:54:58;;;;;;;2.75;1.13;;;15.30;99.90;;;;;;5002082;28;20224;-76
2023/09/22 07:57:30;;;;;;;5.35;1.17;;;15.30;99.90;;;;;;5002492;28;20707;-77
2023/09/22 07:59:57;;;;;;;1.20;0.98;;;15.40;99.90;;;;;;5008109;28;20200;-76
2023/09/22 08:02:25;;;;;;;3.85;1.52;;;15.40;99.90;;;;;;5003585;28;20203;-76
2023/09/22 08:04:52;;;;;;;4.22;1.05;;;15.50;99.90;;;;;;5005982;28;20235;-77
2023/09/22 08:07:20;;;;;;;2.83;1.10;;;15.40;99.90;;;;;;5003739;28;20203;-75
2023/09/22 08:09:47;;;;;;;2.78;1.20;;;15.50;99.90;;;;;;5006952;28;20215;-75
2023/09/22 08:12:15;;;;;;;2.25;1.00;;;15.60;99.90;;;;;;5007875;28;20199;-75
2023/09/22 08:14:45;;;;;;;2.03;1.13;;;15.60;99.90;;;;;;5002217;28;20230;-77
2023/09/22 08:17:12;;;;;;;1.95;0.93;;;15.70;99.90;;;;;;5023205;28;20204;-78
2023/09/22 08:19:39;;;;;;;2.33;1.00;;;15.70;99.90;;;;;;5000406;28;20205;-77
2023/09/22 08:22:07;;;;;;;1.58;0.80;;;15.70;99.90;;;;;;4994550;28;20215;-77
2023/09/22 08:24:35;;;;;;;2.45;1.10;;;15.70;99.90;;;;;;5017420;28;20234;-77
2023/09/22 08:27:03;;;;;;;4.30;1.15;;;15.70;99.90;;;;;;5003079;28;20196;-76
2023/09/22 08:29:32;;;;;;;0.80;0.80;;;15.80;99.90;;;;;;5001260;28;20196;-77
2023/09/22 08:32:01;;;;;;;2.58;0.95;;;15.80;99.90;;;;;;4998128;28;20211;-77
2023/09/22 08:34:29;;;;;;;9.82;1.40;;;15.80;99.90;;;;;;4993886;28;20800;-77
2023/09/22 08:37:14;;;;;;;1.85;1.33;;;15.90;99.90;;;;;;4999782;28;20214;-76
2023/09/22 08:39:44;;;;;;;2.53;1.05;;;15.90;99.90;;;;;;5009511;28;20199;-76
2023/09/22 08:42:12;;;;;;;2.00;1.08;;;16.00;99.90;;;;;;5012027;28;20211;-77
2023/09/22 08:44:39;;;;;;;3.30;1.20;;;16.10;99.90;;;;;;4998351;28;20228;-77
2023/09/22 08:47:08;;;;;;;2.30;1.00;;;16.10;99.90;;;;;;4999616;28;20211;-77
2023/09/22 08:49:35;;;;;;;1.20;0.88;;;16.30;99.90;;;;;;4999873;28;20224;-77
2023/09/22 08:52:04;;;;;;;1.42;0.90;;;16.30;99.90;;;;;;4997903;28;20208;-76
2023/09/22 08:54:31;;;;;;;2.35;1.17;;;16.20;99.90;;;;;;4998321;28;20223;-76
2023/09/22 08:56:59;;;;;;;1.17;0.73;;;16.00;99.90;;;;;;5002607;28;20558;-76
2023/09/22 08:59:27;;;;;;;1.67;1.23;;;16.10;99.90;;;;;;4996478;28;20204;-77
2023/09/22 09:01:55;;;;;;;1.25;1.00;;;16.10;99.90;;;;;;4998319;28;20241;-77
2023/09/22 09:04:37;;;;;;;5.05;1.30;;;16.20;99.90;;;;;;4997764;28;20243;-77
2023/09/22 09:07:05;;;;;;;1.58;1.48;;;16.10;99.90;;;;;;5002511;28;20234;-77
2023/09/22 09:09:43;;;;;;;1.95;1.20;;;16.10;99.90;;;;;;4998277;28;20212;-76
2023/09/22 09:12:11;;;;;;;3.88;1.38;;;16.00;99.90;;;;;;5018263;28;20684;-77
2023/09/22 09:14:40;;;;;;;2.28;1.40;;;16.00;99.90;;;;;;5015869;28;20228;-77
2023/09/22 09:17:22;;;;;;;1.80;1.20;;;16.10;99.90;;;;;;5002963;28;20298;-76
2023/09/22 09:19:54;;;;;;;2.45;1.30;;;16.30;99.90;;;;;;5001648;28;20691;-77
2023/09/22 09:22:29;;;;;;;2.22;1.15;;;16.10;99.90;;;;;;5003347;28;20208;-77
2023/09/22 09:24:59;;;;;;;2.95;1.45;;;16.20;99.90;;;;;;5002372;28;20231;-78
2023/09/22 09:27:26;;;;;;;4.10;1.30;;;16.20;99.90;;;;;;5009258;28;20218;-78
2023/09/22 09:29:54;;;;;;;2.65;1.65;;;16.20;99.90;;;;;;5007962;28;20557;-78
2023/09/22 09:32:26;;;;;;;3.30;1.40;;;16.30;99.90;;;;;;5007651;28;20206;-78
2023/09/22 09:34:55;;;;;;;2.15;1.48;;;16.20;99.90;;;;;;5011522;28;20215;-79
2023/09/22 09:37:23;;;;;;;2.25;1.45;;;16.10;99.90;;;;;;5001342;28;20212;-80
2023/09/22 09:39:52;;;;;;;2.22;1.27;;;16.10;99.90;;;;;;5005185;28;20205;-77
2023/09/22 09:42:22;;;;;;;3.45;1.30;;;16.20;99.90;;;;;;5011076;28;20223;-78
2023/09/22 09:44:51;;;;;;;3.42;1.60;;;16.20;99.90;;;;;;5011319;28;20235;-79
2023/09/22 09:47:23;;;;;;;2.53;1.40;;;16.10;99.90;;;;;;5009715;28;20203;-78
2023/09/22 09:49:55;;;;;;;3.28;1.88;;;16.10;99.90;;;;;;5007719;28;20215;-78
2023/09/22 09:52:27;;;;;;;1.33;0.93;;;16.20;99.90;;;;;;5005205;28;20224;-78
2023/09/22 09:55:09;;;;;;;3.22;1.17;;;16.20;99.90;;;;;;5005034;28;20725;-78
2023/09/22 09:57:39;;;;;;;1.52;0.90;;;16.10;99.90;;;;;;5007266;28;20211;-79
2023/09/22 10:00:13;;;;;;;3.88;0.90;;;16.10;99.90;;;;;;5004704;28;20199;-78
2023/09/22 10:02:45;;;;;;;2.78;1.10;;;16.10;99.90;;;;;;5010395;28;20204;-78
2023/09/22 10:05:15;;;;;;;1.20;0.70;;;16.10;99.90;;;;;;5007737;28;20226;-79
2023/09/22 10:07:44;;;;;;;1.92;0.93;;;16.10;99.90;;;;;;5013325;28;20650;-79
2023/09/22 10:10:12;;;;;;;2.92;0.90;;;16.10;99.90;;;;;;5008345;28;20204;-78
2023/09/22 10:12:41;;;;;;;1.85;0.85;;;16.20;99.90;;;;;;5009918;28;20204;-78
2023/09/22 10:15:09;;;;;;;1.17;0.73;;;16.30;99.90;;;;;;5014855;28;20215;-78
2023/09/22 10:17:37;;;;;;;2.65;1.13;;;16.30;99.90;;;;;;5013951;28;20207;-79
2023/09/22 10:20:10;;;;;;;2.25;0.70;;;16.30;99.90;;;;;;5012322;28;20207;-78
2023/09/22 10:22:39;;;;;;;1.83;1.10;;;16.30;99.90;;;;;;5014758;28;20199;-78
2023/09/22 10:25:24;;;;;;;1.65;1.45;;;16.40;99.90;;;;;;5012759;28;20215;-78
2023/09/22 10:27:57;;;;;;;2.08;1.10;;;16.40;99.90;;;;;;5011049;28;20529;-78
2023/09/22 10:30:30;;;;;;;1.40;0.90;;;16.70;99.90;;;;;;5013125;28;20219;-79
2023/09/22 10:33:30;;;;;;;3.00;1.05;;;16.70;99.90;;;;;;5011589;28;20192;-79
2023/09/22 10:35:58;;;;;;;2.00;0.90;;;16.80;99.90;;;;;;5003015;28;20223;-79
2023/09/22 10:38:27;;;;;;;2.97;0.90;;;16.90;99.90;;;;;;5008189;28;20215;-79
2023/09/22 10:41:07;;;;;;;2.67;0.90;;;16.90;99.90;;;;;;4998456;28;20197;-80
2023/09/22 10:43:36;;;;;;;2.10;0.65;;;17.30;99.90;;;;;;5004297;28;20226;-79
2023/09/22 10:46:04;;;;;;;1.48;0.60;;;17.40;99.90;;;;;;5005070;28;20228;-79
2023/09/22 10:48:34;;;;;;;1.40;0.70;;;17.50;99.90;;;;;;5011133;28;20203;-79
2023/09/22 10:51:06;;;;;;;2.05;0.80;;;17.30;99.90;;;;;;5006992;28;20196;-78
2023/09/22 10:53:38;;;;;;;1.23;0.90;;;17.10;99.90;;;;;;5006884;28;20594;-79
2023/09/22 10:56:06;;;;;;;2.03;0.70;;;17.10;99.90;;;;;;5012819;28;20191;-79
2023/09/22 10:58:34;;;;;;;1.45;1.00;;;17.30;99.90;;;;;;5007774;28;20219;-79
2023/09/22 11:01:04;;;;;;;2.33;0.90;;;17.50;99.90;;;;;;5007828;28;20200;-79
2023/09/22 11:03:34;;;;;;;1.27;0.70;;;17.50;99.90;;;;;;5032094;23;20198;-78
2023/09/22 11:06:06;;;;;;;1.15;0.73;;;17.30;99.90;;;;;;5020516;28;20208;-78
2023/09/22 11:08:34;;;;;;;1.58;0.80;;;17.30;99.90;;;;;;5023066;28;20691;-78
2023/09/22 11:11:03;;;;;;;1.40;0.70;;;17.40;99.90;;;;;;5012527;28;20203;-78
2023/09/22 11:13:30;;;;;;;3.72;0.73;;;17.70;99.90;;;;;;5021949;28;20200;-78
2023/09/22 11:16:01;;;;;;;1.77;0.90;;;17.80;99.90;;;;;;5011634;28;20196;-78
2023/09/22 11:18:31;;;;;;;3.22;0.75;;;17.80;99.90;;;;;;5015568;28;20208;-78
2023/09/22 11:20:59;;;;;;;2.50;1.05;;;17.70;99.90;;;;;;5008902;28;20208;-78
2023/09/22 11:23:27;;;;;;;1.85;0.70;;;17.50;99.90;;;;;;5010076;28;20207;-78
2023/09/22 11:25:58;;;;;;;1.75;0.88;;;17.40;99.90;;;;;;5011868;28;20731;-78
2023/09/22 11:28:26;;;;;;;1.85;0.80;;;17.40;99.90;;;;;;5011732;28;20214;-78
2023/09/22 11:30:54;;;;;;;2.00;0.77;;;17.70;99.90;;;;;;5011260;28;20207;-78
2023/09/22 11:33:21;;;;;;;2.47;0.70;;;17.80;99.90;;;;;;5001223;28;20195;-78
2023/09/22 11:35:52;;;;;;;2.58;0.93;;;18.00;99.90;;;;;;5002612;28;20196;-78
2023/09/22 11:38:28;;;;;;;4.82;0.90;;;18.00;99.90;;;;;;5001529;28;20212;-79
2023/09/22 11:41:16;;;;;;;2.70;1.20;;;18.30;99.90;;;;;;5006485;28;20215;-78
2023/09/22 11:43:44;;;;;;;1.15;0.93;;;18.60;99.90;;;;;;5007169;28;20690;-78
2023/09/22 11:46:13;;;;;;;1.38;0.98;;;18.70;99.90;;;;;;5002946;28;20216;-78
2023/09/22 11:48:59;;;;;;;3.45;1.00;;;18.90;99.90;;;;;;5001968;28;20212;-78
2023/09/22 11:51:43;;;;;;;1.75;0.98;;;18.90;99.90;;;;;;5001993;28;20214;-79
2023/09/22 11:54:11;;;;;;;1.45;0.82;;;18.50;99.90;;;;;;5000637;28;20227;-78
2023/09/22 11:56:40;;;;;;;2.72;0.88;;;18.60;99.90;;;;;;4995138;28;20696;-78
2023/09/22 11:59:09;;;;;;;0.82;0.60;;;18.60;99.90;;;;;;5009145;28;20198;-78
2023/09/22 12:01:37;;;;;;;1.38;0.80;;;18.70;99.90;;;;;;5000838;28;20216;-78
2023/09/22 12:04:06;;;;;;;2.35;0.80;;;19.10;99.90;;;;;;5002965;28;20239;-78
2023/09/22 12:06:34;;;;;;;1.25;0.90;;;19.40;99.90;;;;;;4996323;28;20588;-77
2023/09/22 12:09:01;;;;;;;3.05;0.73;;;18.80;99.90;;;;;;5001370;28;20199;-77
2023/09/22 12:11:29;;;;;;;1.10;0.50;;;18.50;99.90;;;;;;4997095;28;20200;-78
2023/09/22 12:13:58;;;;;;;2.75;0.77;;;18.70;99.90;;;;;;4995685;28;20567;-77
2023/09/22 12:16:26;;;;;;;1.50;0.88;;;18.80;99.90;;;;;;4999696;28;20187;-77
2023/09/22 12:18:53;;;;;;;2.78;0.93;;;19.10;99.90;;;;;;4998051;28;20227;-78
2023/09/22 12:21:20;;;;;;;4.95;1.00;;;19.40;99.40;;;;;;4999545;28;20204;-79
2023/09/22 12:23:48;;;;;;;1.55;0.75;;;19.60;98.90;;;;;;5006010;28;20223;-78
2023/09/22 12:26:16;;;;;;;2.10;0.90;;;19.50;97.00;;;;;;5001486;28;20231;-78
2023/09/22 12:28:43;;;;;;;1.95;0.70;;;19.40;96.70;;;;;;5008491;28;20207;-78
2023/09/22 12:31:18;;;;;;;1.38;0.75;;;19.60;96.70;;;;;;5004057;28;20203;-77
2023/09/22 12:33:46;;;;;;;1.40;0.77;;;19.30;95.80;;;;;;5003535;28;20224;-78
2023/09/22 12:36:14;;;;;;;1.08;0.65;;;19.20;95.50;;;;;;5011879;28;20196;-78
2023/09/22 12:38:42;;;;;;;1.50;0.70;;;19.90;96.30;;;;;;5000368;28;20289;-78
2023/09/22 12:41:10;;;;;;;0.90;0.70;;;19.40;95.10;;;;;;5007008;28;20195;-78
2023/09/22 12:43:38;;;;;;;1.13;0.60;;;19.50;95.10;;;;;;5003173;28;20228;-78
2023/09/22 12:46:08;;;;;;;1.95;0.90;;;19.90;94.40;;;;;;5009704;28;20215;-78
2023/09/22 12:48:40;;;;;;;2.05;1.00;;;19.90;94.30;;;;;;5008793;28;20649;-78
2023/09/22 12:51:10;;;;;;;1.52;0.63;;;20.00;94.10;;;;;;5011377;28;20199;-78
2023/09/22 12:53:37;;;;;;;2.05;0.90;;;19.90;93.50;;;;;;5005102;28;20602;-78
2023/09/22 12:56:05;;;;;;;2.08;1.13;;;19.90;94.60;;;;;;5005642;28;20679;-78
2023/09/22 12:58:34;;;;;;;1.27;0.85;;;20.10;93.60;;;;;;5001634;28;20211;-78